Time;durP1;ratioP1;P1;durP2;ratioP2;P2;SDS_P1;SDS_P2;PMS_P1;PMS_P2;Temp;Humidity;BMP_temperature;BMP_pressure;BME280_temperature;BME280_humidity;BME280_pressure;Samples;Min_cycle;Max_cycle;Signal;HPM_P1;HPM_P2
2022/02/01 00:00:59;;;;;;;32.70;14.50;;;;;;;-1.04;100.00;99837.75;3486029;82;99610;-91
2022/02/01 00:05:08;;;;;;;30.88;13.13;;;;;;;-1.02;100.00;99845.55;3467937;83;25688;-92
2022/02/01 00:15:54;;;;;;;33.13;12.17;;;;;;;-1.03;100.00;99838.56;3501125;83;99138;-92
2022/02/01 00:36:33;;;;;;;27.82;10.50;;;;;;;-0.97;100.00;99860.25;3503514;83;99497;-92
2022/02/01 00:41:33;;;;;;;27.43;10.63;;;;;;;-0.97;100.00;99871.86;3482182;83;99065;-92
2022/02/01 00:46:34;;;;;;;24.27;9.50;;;;;;;-0.97;100.00;99877.80;3494742;81;98954;-91
2022/02/01 00:51:35;;;;;;;21.10;8.53;;;;;;;-0.96;100.00;99886.95;3477307;83;99246;-92
2022/02/01 00:56:36;;;;;;;26.80;10.50;;;;;;;-0.97;100.00;99881.86;3492411;83;98906;-93
2022/02/01 01:01:37;;;;;;;24.12;8.98;;;;;;;-0.98;100.00;99883.78;3500557;83;99021;-91
2022/02/01 01:06:39;;;;;;;28.87;10.20;;;;;;;-0.98;100.00;99885.13;3499502;80;98777;-92
2022/02/01 01:11:40;;;;;;;25.73;10.73;;;;;;;-0.95;100.00;99882.33;3489869;82;98800;-92
2022/02/01 01:53:46;;;;;;;26.90;10.53;;;;;;;-0.91;100.00;99916.52;3531283;81;99171;-86
2022/02/01 01:58:47;;;;;;;23.93;10.83;;;;;;;-0.91;100.00;99909.77;3482485;82;98941;-91
2022/02/01 02:03:49;;;;;;;24.80;10.70;;;;;;;-0.87;100.00;99917.48;3501142;82;99261;-91
2022/02/01 02:08:53;;;;;;;22.37;8.47;;;;;;;-0.86;100.00;99911.52;3494221;83;99138;-92
2022/02/01 02:19:21;;;;;;;19.42;8.13;;;;;;;-0.83;100.00;99899.52;3486037;83;98829;-91
2022/02/01 02:24:28;;;;;;;20.97;7.35;;;;;;;-0.85;100.00;99886.89;3499811;79;98860;-92
2022/02/01 02:29:29;;;;;;;20.03;7.07;;;;;;;-0.83;100.00;99887.94;3481044;83;98984;-92
2022/02/01 02:34:30;;;;;;;21.23;7.67;;;;;;;-0.80;100.00;99895.39;3494659;83;98549;-92
2022/02/01 02:39:35;;;;;;;25.07;10.20;;;;;;;-0.78;100.00;99897.24;3478912;83;99211;-92
2022/02/01 02:49:56;;;;;;;20.17;7.78;;;;;;;-0.80;100.00;99902.95;3477874;83;98895;-92
2022/02/01 02:54:58;;;;;;;20.47;8.43;;;;;;;-0.82;100.00;99901.68;3498391;83;98925;-93
2022/02/01 02:59:59;;;;;;;25.43;9.53;;;;;;;-0.82;100.00;99913.27;3482790;81;99235;-92
2022/02/01 03:05:00;;;;;;;26.77;8.83;;;;;;;-0.81;100.00;99917.58;3503943;83;33057;-92
2022/02/01 03:10:01;;;;;;;24.73;11.00;;;;;;;-0.80;100.00;99912.95;3492115;81;99135;-92
2022/02/01 03:15:24;;;;;;;24.10;9.97;;;;;;;-0.76;100.00;99915.27;3542106;80;99434;-91
2022/02/01 03:20:09;;;;;;;27.48;10.80;;;;;;;-0.74;100.00;99913.05;3512381;82;99191;-92
2022/02/01 03:25:11;;;;;;;30.03;11.87;;;;;;;-0.73;100.00;99910.03;3514429;82;99491;-92
2022/02/01 03:30:12;;;;;;;26.23;11.25;;;;;;;-0.71;100.00;99905.09;3511129;82;99353;-92
2022/02/01 03:35:12;;;;;;;24.13;11.20;;;;;;;-0.65;100.00;99913.87;3520787;82;33061;-92
2022/02/01 03:40:19;;;;;;;30.40;12.10;;;;;;;-0.64;100.00;99900.05;3502275;82;99131;-92
2022/02/01 03:45:19;;;;;;;30.07;12.47;;;;;;;-0.61;100.00;99895.92;3512217;82;98777;-92
2022/02/01 03:50:20;;;;;;;32.53;10.90;;;;;;;-0.58;100.00;99878.52;3489192;83;98999;-92
2022/02/01 03:55:21;;;;;;;28.60;13.00;;;;;;;-0.53;100.00;99880.25;3501275;83;99322;-92
2022/02/01 04:00:22;;;;;;;30.00;11.67;;;;;;;-0.48;100.00;99891.72;3487772;83;98466;-92
2022/02/01 04:05:23;;;;;;;30.83;14.30;;;;;;;-0.45;100.00;99892.42;3506962;83;33136;-92
2022/02/01 04:10:25;;;;;;;29.72;11.65;;;;;;;-0.45;100.00;99896.47;3490286;81;99145;-92
2022/02/01 04:15:27;;;;;;;30.30;12.73;;;;;;;-0.43;100.00;99894.81;3487783;80;98890;-92
2022/02/01 04:20:28;;;;;;;29.40;11.50;;;;;;;-0.46;100.00;99894.89;3510695;81;98425;-92
2022/02/01 04:25:29;;;;;;;27.30;11.00;;;;;;;-0.44;100.00;99887.25;3512826;81;98958;-92
2022/02/01 04:30:30;;;;;;;28.33;12.60;;;;;;;-0.45;100.00;99894.34;3486470;82;98966;-90
2022/02/01 04:35:32;;;;;;;30.93;11.17;;;;;;;-0.44;100.00;99897.28;3498079;82;33469;-91
2022/02/01 04:40:34;;;;;;;29.17;11.40;;;;;;;-0.43;100.00;99901.57;3495437;81;98683;-93
2022/02/01 04:45:35;;;;;;;33.47;12.23;;;;;;;-0.42;100.00;99889.88;3511325;81;98847;-91
2022/02/01 04:50:38;;;;;;;35.50;12.00;;;;;;;-0.39;100.00;99886.31;3493538;82;98911;-92
2022/02/01 04:55:54;;;;;;;29.05;11.12;;;;;;;-0.37;100.00;99893.00;3502517;81;99289;-92
2022/02/01 05:00:48;;;;;;;24.32;10.80;;;;;;;-0.37;100.00;99884.31;3489417;81;99050;-91
2022/02/01 05:05:50;;;;;;;33.03;12.07;;;;;;;-0.35;100.00;99874.55;3514716;81;99277;-91
2022/02/01 05:10:51;;;;;;;32.10;11.13;;;;;;;-0.31;100.00;99864.69;3516708;81;98698;-92
2022/02/01 05:16:02;;;;;;;34.90;11.53;;;;;;;-0.28;100.00;99857.85;3520150;81;98879;-93
2022/02/01 05:21:01;;;;;;;30.07;12.17;;;;;;;-0.27;100.00;99850.78;3484629;82;99050;-93
2022/02/01 05:25:59;;;;;;;35.65;11.97;;;;;;;-0.23;100.00;99851.70;3502965;82;98941;-92
2022/02/01 05:31:02;;;;;;;34.50;12.67;;;;;;;-0.21;100.00;99861.09;3498362;80;99421;-92
2022/02/01 05:36:05;;;;;;;37.60;13.18;;;;;;;-0.17;100.00;99853.94;3509526;81;99283;-92
2022/02/01 05:41:09;;;;;;;34.10;12.33;;;;;;;-0.15;100.00;99854.41;3498034;83;98935;-92
2022/02/01 05:46:10;;;;;;;36.60;13.17;;;;;;;-0.11;100.00;99855.91;3494023;81;98802;-92
2022/02/01 05:51:11;;;;;;;32.00;11.90;;;;;;;-0.07;100.00;99878.50;3486209;83;99172;-94
2022/02/01 05:56:13;;;;;;;34.03;12.60;;;;;;;-0.03;100.00;99874.05;3499118;82;99511;-92
2022/02/01 06:01:14;;;;;;;38.70;14.77;;;;;;;0.02;100.00;99874.66;3489847;83;99021;-92
2022/02/01 06:06:15;;;;;;;37.60;13.10;;;;;;;0.07;100.00;99880.48;3487771;81;99085;-92
2022/02/01 06:11:16;;;;;;;35.53;12.67;;;;;;;0.13;100.00;99876.48;3500549;81;98789;-92
2022/02/01 06:16:17;;;;;;;37.70;13.53;;;;;;;0.18;100.00;99881.16;3500434;82;98962;-91
2022/02/01 06:21:17;;;;;;;36.07;12.77;;;;;;;0.20;100.00;99881.64;3496981;82;98581;-91
2022/02/01 06:26:21;;;;;;;35.83;13.17;;;;;;;0.24;100.00;99882.57;3512631;81;98793;-91
2022/02/01 06:31:21;;;;;;;45.48;14.40;;;;;;;0.29;100.00;99887.03;3488969;80;98838;-90
2022/02/01 06:36:22;;;;;;;31.90;12.70;;;;;;;0.34;100.00;99881.45;3486379;80;98859;-91
2022/02/01 06:41:23;;;;;;;39.67;12.63;;;;;;;0.36;100.00;99881.92;3495328;82;98312;-90
2022/02/01 06:46:24;;;;;;;37.83;12.13;;;;;;;0.39;100.00;99878.58;3504275;81;98617;-92
2022/02/01 06:51:27;;;;;;;29.80;11.53;;;;;;;0.42;100.00;99880.08;3508232;82;98672;-88
2022/02/01 06:56:33;;;;;;;30.10;10.90;;;;;;;0.45;100.00;99880.77;3516248;81;98869;-89
2022/02/01 07:01:34;;;;;;;37.33;12.17;;;;;;;0.49;100.00;99887.67;3505503;81;99132;-88
2022/02/01 07:06:35;;;;;;;32.63;11.27;;;;;;;0.54;100.00;99890.21;3504773;81;99563;-89
2022/02/01 07:11:38;;;;;;;41.20;11.90;;;;;;;0.58;100.00;99883.84;3510164;82;98656;-86
2022/02/01 07:16:39;;;;;;;26.05;11.00;;;;;;;0.60;100.00;99884.30;3516416;79;98484;-88
2022/02/01 07:21:40;;;;;;;35.83;12.87;;;;;;;0.64;100.00;99870.36;3503296;81;98822;-88
2022/02/01 07:26:52;;;;;;;35.40;12.27;;;;;;;0.69;100.00;99873.44;3498312;81;98805;-86
2022/02/01 07:31:45;;;;;;;31.42;12.13;;;;;;;0.70;100.00;99857.42;3510358;82;98765;-88
2022/02/01 07:36:49;;;;;;;35.77;11.60;;;;;;;0.71;100.00;99859.81;3501740;81;99116;-87
2022/02/01 07:41:50;;;;;;;31.87;13.63;;;;;;;0.74;100.00;99849.70;3506296;81;98904;-88
2022/02/01 07:46:52;;;;;;;30.93;12.93;;;;;;;0.77;100.00;99842.84;3497022;81;99310;-87
2022/02/01 07:51:54;;;;;;;27.52;10.48;;;;;;;0.77;100.00;99831.42;3475419;82;99344;-88
2022/02/01 07:56:56;;;;;;;29.80;10.87;;;;;;;0.80;100.00;99828.08;3488977;81;99402;-89
2022/02/01 08:01:56;;;;;;;30.60;12.33;;;;;;;0.83;100.00;99830.69;3479613;81;99115;-88
2022/02/01 08:06:59;;;;;;;36.50;9.93;;;;;;;0.86;100.00;99827.31;3500999;81;99230;-88
2022/02/01 08:12:08;;;;;;;23.20;9.50;;;;;;;0.89;100.00;99823.97;3455613;83;98649;-89
2022/02/01 08:17:31;;;;;;;25.95;9.25;;;;;;;0.92;100.00;99827.36;3493175;82;98361;-91
2022/02/01 08:22:24;;;;;;;31.87;11.25;;;;;;;0.93;100.00;99817.55;3465394;82;98449;-96
2022/02/01 08:27:10;;;;;;;23.85;10.38;;;;;;;0.95;100.00;99817.23;3497741;82;99183;-89
2022/02/01 08:32:11;;;;;;;22.60;9.40;;;;;;;0.96;100.00;99819.62;3515148;81;98014;-91
2022/02/01 08:37:13;;;;;;;26.57;10.45;;;;;;;0.97;100.00;99813.08;3501520;82;98999;-91
2022/02/01 08:42:13;;;;;;;27.13;9.50;;;;;;;0.99;100.00;99807.34;3510753;81;98878;-92
2022/02/01 08:47:15;;;;;;;24.95;8.68;;;;;;;1.00;100.00;99812.41;3503838;81;99252;-91
2022/02/01 08:52:39;;;;;;;27.50;9.80;;;;;;;1.03;100.00;99803.63;3502030;82;98548;-92
2022/02/01 08:57:31;;;;;;;27.27;10.43;;;;;;;1.05;100.00;99802.73;3494374;82;98930;-92
2022/02/01 09:02:40;;;;;;;29.13;10.17;;;;;;;1.07;100.00;99804.56;3533991;80;98874;-92
2022/02/01 09:07:41;;;;;;;26.85;10.68;;;;;;;1.09;100.00;99790.12;3599586;80;99368;-92
2022/02/01 09:12:42;;;;;;;24.73;9.77;;;;;;;1.11;100.00;99783.80;3638922;80;98864;-93
2022/02/01 09:17:45;;;;;;;28.13;8.93;;;;;;;1.12;100.00;99775.12;3635082;80;98688;-91
2022/02/01 09:22:47;;;;;;;30.57;11.25;;;;;;;1.11;100.00;99775.67;3640529;80;98232;-91
2022/02/01 09:27:51;;;;;;;27.43;10.40;;;;;;;1.11;100.00;99765.41;3636299;80;98918;-92
2022/02/01 09:32:53;;;;;;;26.77;11.28;;;;;;;1.10;100.00;99757.05;3639590;80;98869;-95
2022/02/01 09:37:56;;;;;;;27.73;9.83;;;;;;;1.10;100.00;99747.56;3631663;80;99099;-96
2022/02/01 09:42:56;;;;;;;35.10;12.60;;;;;;;1.09;100.00;99751.41;3651317;80;99018;-96
2022/02/01 09:48:06;;;;;;;29.40;12.07;;;;;;;1.09;100.00;99747.34;3627111;78;98893;-95
2022/02/01 09:53:07;;;;;;;28.62;12.45;;;;;;;1.09;100.00;99758.19;3658594;78;25669;-95
2022/02/01 09:58:11;;;;;;;25.77;11.40;;;;;;;1.07;100.00;99761.77;3700061;78;99045;-96
2022/02/01 10:03:18;;;;;;;28.15;10.00;;;;;;;1.06;100.00;99759.63;3704442;78;97943;-91
2022/02/01 10:08:27;;;;;;;24.67;10.20;;;;;;;1.06;100.00;99743.92;3685042;78;99035;-93
2022/02/01 10:13:32;;;;;;;26.10;10.08;;;;;;;1.09;100.00;99740.57;3698647;78;99180;-91
2022/02/01 10:18:34;;;;;;;25.77;10.45;;;;;;;1.11;100.00;99728.83;3681788;78;99132;-92
2022/02/01 10:23:39;;;;;;;29.55;12.30;;;;;;;1.14;100.00;99724.09;3703193;78;25581;-91
2022/02/01 10:34:02;;;;;;;26.87;10.80;;;;;;;1.25;100.00;99713.88;3711435;78;98500;-95
2022/02/01 10:38:57;;;;;;;17.43;7.63;;;;;;;1.39;100.00;99704.91;3684987;77;98778;-93
2022/02/01 10:43:59;;;;;;;20.10;8.80;;;;;;;1.63;100.00;99698.19;3706169;78;98580;-91
2022/02/01 10:49:00;;;;;;;25.60;10.87;;;;;;;1.88;100.00;99670.54;3729827;76;98679;-90
2022/02/01 10:54:04;;;;;;;17.80;8.57;;;;;;;2.04;100.00;99663.31;3752638;77;33812;-92
2022/02/01 10:59:04;;;;;;;18.85;8.33;;;;;;;2.22;100.00;99651.09;3683826;78;98482;-90
2022/02/01 11:04:08;;;;;;;19.10;7.97;;;;;;;2.45;100.00;99634.55;3695425;78;97696;-88
2022/02/01 11:09:09;;;;;;;16.27;7.12;;;;;;;2.67;100.00;99634.07;3656144;78;99004;-94
2022/02/01 11:14:22;;;;;;;19.50;7.43;;;;;;;2.71;100.00;99623.52;3704192;77;98576;-93
2022/02/01 11:19:25;;;;;;;17.10;7.62;;;;;;;2.77;100.00;99623.50;3697306;78;98812;-92
2022/02/01 11:24:44;;;;;;;18.75;7.45;;;;;;;2.87;100.00;99621.66;3681635;78;98605;-91
2022/02/01 11:30:11;;;;;;;16.93;7.62;;;;;;;2.87;100.00;99621.66;3677839;78;98321;-94
2022/02/01 11:35:20;;;;;;;17.70;8.73;;;;;;;2.86;100.00;99624.16;3687831;78;97692;-96
2022/02/01 11:40:29;;;;;;;18.27;7.60;;;;;;;2.94;100.00;99625.92;3664485;78;98565;-96
2022/02/01 11:45:34;;;;;;;19.67;7.87;;;;;;;2.94;100.00;99621.05;3675677;77;98756;-93
2022/02/01 11:50:56;;;;;;;19.45;7.55;;;;;;;2.95;100.00;99619.94;3654527;78;99035;-91
2022/02/01 11:56:02;;;;;;;16.93;6.80;;;;;;;2.92;100.00;99602.39;3690009;78;98680;-91
2022/02/01 12:01:28;;;;;;;17.62;6.90;;;;;;;2.88;100.00;99599.34;3688420;77;98975;-94
2022/02/01 12:06:55;;;;;;;18.77;7.40;;;;;;;2.80;100.00;99582.63;3683860;78;26058;-93
2022/02/01 12:11:59;;;;;;;18.73;6.75;;;;;;;2.75;100.00;99570.09;3693436;78;98454;-91
2022/02/01 12:17:04;;;;;;;20.55;6.80;;;;;;;2.74;100.00;99562.28;3633029;78;98949;-92
2022/02/01 12:22:29;;;;;;;20.65;6.58;;;;;;;2.71;100.00;99561.04;3676586;78;99297;-93
2022/02/01 12:27:37;;;;;;;27.00;9.30;;;;;;;2.70;100.00;99541.00;3682866;78;98952;-92
2022/02/01 12:32:57;;;;;;;21.80;8.20;;;;;;;2.73;100.00;99538.38;3700943;78;98552;-90
2022/02/01 12:38:16;;;;;;;15.88;6.35;;;;;;;2.76;100.00;99521.95;3700607;78;98840;-94
2022/02/01 12:43:19;;;;;;;15.95;5.75;;;;;;;2.80;100.00;99511.98;3682877;78;97999;-92
2022/02/01 12:48:18;;;;;;;25.43;6.92;;;;;;;2.85;100.00;99500.28;3689076;78;98899;-94
2022/02/01 12:53:19;;;;;;;24.30;6.07;;;;;;;2.87;100.00;99488.52;3690325;78;97685;-93
2022/02/01 12:58:21;;;;;;;23.97;6.63;;;;;;;2.89;100.00;99471.87;3697069;78;98645;-94
2022/02/01 13:03:24;;;;;;;21.07;6.40;;;;;;;2.91;100.00;99465.51;3691489;78;98849;-94
2022/02/01 13:23:55;;;;;;;21.15;7.40;;;;;;;3.13;100.00;99419.49;3700702;78;98448;-91
2022/02/01 13:29:05;;;;;;;19.70;6.33;;;;;;;3.19;100.00;99414.00;3651777;78;98959;-93
2022/02/01 13:34:11;;;;;;;25.48;7.42;;;;;;;3.21;100.00;99414.98;3692352;78;99043;-89
2022/02/01 13:39:38;;;;;;;22.23;6.57;;;;;;;3.23;100.00;99398.54;3687786;78;99029;-93
2022/02/01 13:44:35;;;;;;;30.08;8.80;;;;;;;3.23;100.00;99378.16;3693637;77;99189;-94
2022/02/01 13:49:55;;;;;;;20.80;7.22;;;;;;;3.21;100.00;99370.13;3691111;78;98856;-95
2022/02/01 13:55:00;;;;;;;22.82;6.90;;;;;;;3.21;100.00;99358.70;3695629;78;26445;-94
2022/02/01 14:00:15;;;;;;;18.07;6.53;;;;;;;3.19;100.00;99344.69;3688876;78;98601;-96
2022/02/01 14:05:38;;;;;;;16.52;6.35;;;;;;;3.15;100.00;99322.62;3687878;78;98008;-95
2022/02/01 14:16:30;;;;;;;23.33;8.20;;;;;;;3.13;100.00;99282.78;3687443;79;99041;-95
2022/02/01 14:36:44;;;;;;;21.27;7.45;;;;;;;3.04;100.00;99226.47;3671180;78;98049;-90
2022/02/01 14:47:04;;;;;;;23.60;7.17;;;;;;;2.91;100.00;99199.22;3667664;79;98761;-93
2022/02/01 14:52:06;;;;;;;20.95;7.72;;;;;;;2.83;100.00;99178.45;3643056;79;99011;-91
2022/02/01 15:07:52;;;;;;;23.83;7.87;;;;;;;2.67;100.00;99142.44;3670590;79;98719;-90
2022/02/01 15:12:49;;;;;;;24.02;8.73;;;;;;;2.62;100.00;99128.55;3672291;79;25890;-91
2022/02/01 15:17:50;;;;;;;20.57;7.92;;;;;;;2.57;100.00;99102.26;3662473;79;100486;-91
2022/02/01 15:22:52;;;;;;;18.83;6.90;;;;;;;2.50;100.00;99086.59;3668925;79;98625;-86
2022/02/01 15:27:52;;;;;;;18.73;7.50;;;;;;;2.45;100.00;99077.92;3657187;79;98839;-87
2022/02/01 15:32:54;;;;;;;27.23;9.10;;;;;;;2.40;100.00;99055.16;3654500;79;98590;-91
2022/02/01 15:37:55;;;;;;;24.93;8.40;;;;;;;2.36;100.00;99034.70;3655716;77;98584;-87
2022/02/01 15:58:48;;;;;;;22.67;10.97;;;;;;;2.11;100.00;98980.49;3644329;79;98939;-87
2022/02/01 16:03:50;;;;;;;27.50;11.20;;;;;;;2.03;100.00;98965.19;3699747;77;99260;-85
2022/02/01 16:08:52;;;;;;;30.30;11.20;;;;;;;1.96;100.00;98950.69;3706480;77;98847;-86
2022/02/01 16:14:00;;;;;;;26.50;10.95;;;;;;;1.90;100.00;98928.49;3710308;78;99176;-84
2022/02/01 16:18:58;;;;;;;28.52;11.93;;;;;;;1.83;100.00;98922.12;3710800;77;98891;-88
2022/02/01 16:24:00;;;;;;;30.43;13.10;;;;;;;1.78;100.00;98912.36;3721507;78;98706;-85
2022/02/01 16:29:07;;;;;;;34.70;14.45;;;;;;;1.71;100.00;98896.50;3688366;78;98893;-88
2022/02/01 16:34:11;;;;;;;31.87;13.08;;;;;;;1.61;100.00;98868.59;3706692;78;99184;-86
2022/02/01 16:39:14;;;;;;;32.87;14.87;;;;;;;1.51;100.00;98865.08;3693272;77;99698;-86
2022/02/01 16:44:16;;;;;;;26.60;12.30;;;;;;;1.38;100.00;98846.80;3685571;77;99271;-90
2022/02/01 16:49:17;;;;;;;31.73;12.43;;;;;;;1.28;100.00;98821.63;3691362;78;98832;-89
2022/02/01 16:54:28;;;;;;;22.47;10.70;;;;;;;1.22;100.00;98799.23;3715124;78;98573;-93
2022/02/01 16:59:25;;;;;;;20.27;11.63;;;;;;;1.16;100.00;98775.67;3706543;78;99204;-92
2022/02/01 17:04:24;;;;;;;18.07;9.88;;;;;;;1.12;100.00;98755.08;3672058;77;98778;-86
2022/02/01 17:09:27;;;;;;;21.63;9.57;;;;;;;1.06;100.00;98740.25;3701420;78;98737;-92
2022/02/01 17:24:48;;;;;;;18.67;9.23;;;;;;;0.98;100.00;98674.31;3658894;78;26184;-86
2022/02/01 17:29:50;;;;;;;19.07;9.48;;;;;;;0.96;100.00;98673.09;3702178;78;99007;-85
2022/02/01 17:34:51;;;;;;;16.20;8.90;;;;;;;0.93;100.00;98627.80;3676238;78;99131;-87
2022/02/01 17:39:52;;;;;;;15.58;8.88;;;;;;;0.93;100.00;98616.95;3679843;77;98705;-87
2022/02/01 17:44:53;;;;;;;17.50;10.47;;;;;;;0.92;100.00;98604.53;3691150;78;98673;-87
2022/02/01 17:49:54;;;;;;;16.27;8.90;;;;;;;0.91;100.00;98590.78;3688792;78;98809;-88
2022/02/01 17:54:55;;;;;;;18.53;10.47;;;;;;;0.90;100.00;98586.52;3706011;78;32999;-88
2022/02/01 17:59:56;;;;;;;17.43;9.30;;;;;;;0.89;100.00;98563.30;3685179;78;99058;-91
2022/02/01 18:05:00;;;;;;;19.73;7.80;;;;;;;0.88;100.00;98549.55;3663557;78;98968;-89
2022/02/01 18:10:03;;;;;;;16.00;7.60;;;;;;;0.88;100.00;98548.97;3606781;80;99106;-85
2022/02/01 18:15:06;;;;;;;13.53;6.42;;;;;;;0.87;100.00;98539.28;3671502;79;99053;-83
2022/02/01 18:20:09;;;;;;;13.35;6.67;;;;;;;0.87;100.00;98521.68;3669804;79;98703;-87
2022/02/01 18:25:10;;;;;;;13.98;6.85;;;;;;;0.87;100.00;98508.14;3675742;79;25498;-88
2022/02/01 18:30:19;;;;;;;13.03;6.53;;;;;;;0.87;100.00;98487.04;3633177;79;98945;-87
2022/02/01 18:35:25;;;;;;;15.75;6.92;;;;;;;0.86;100.00;98476.00;3630788;79;98891;-91
2022/02/01 18:40:26;;;;;;;13.37;6.40;;;;;;;0.86;100.00;98468.67;3640616;80;98706;-88
2022/02/01 18:45:36;;;;;;;14.47;7.67;;;;;;;0.86;100.00;98453.78;3638770;80;99238;-85
2022/02/01 18:50:45;;;;;;;14.47;6.85;;;;;;;0.85;100.00;98440.04;3626569;79;99195;-85
2022/02/01 19:07:13;;;;;;;12.95;6.97;;;;;;;0.88;100.00;98414.94;3670257;78;98278;-84
2022/02/01 19:12:05;;;;;;;12.20;6.35;;;;;;;0.92;100.00;98412.28;3711037;78;98705;-85
2022/02/01 19:17:07;;;;;;;13.60;6.85;;;;;;;0.96;100.00;98396.88;3724646;77;98830;-83
2022/02/01 19:22:08;;;;;;;12.37;7.08;;;;;;;1.01;100.00;98389.81;3723985;78;98198;-82
2022/02/01 19:27:10;;;;;;;12.73;6.60;;;;;;;1.04;100.00;98388.50;3718113;78;98783;-83
2022/02/01 19:32:14;;;;;;;14.07;6.25;;;;;;;1.10;100.00;98384.93;3720921;77;97866;-81
2022/02/01 19:37:16;;;;;;;17.17;8.73;;;;;;;1.16;100.00;98378.81;3716401;78;98390;-82
2022/02/01 19:42:20;;;;;;;17.20;8.13;;;;;;;1.20;100.00;98363.41;3694570;78;98586;-83
2022/02/01 19:52:24;;;;;;;11.48;5.83;;;;;;;1.25;100.00;98358.23;3723412;78;97841;-81
2022/02/01 19:57:29;;;;;;;13.33;5.77;;;;;;;1.26;100.00;98331.37;3707914;78;97820;-81
2022/02/01 20:02:31;;;;;;;13.13;5.62;;;;;;;1.32;100.00;98336.69;3728522;78;98229;-81
2022/02/01 20:07:33;;;;;;;12.78;6.30;;;;;;;1.37;100.00;98330.36;3698109;78;98724;-80
2022/02/01 20:12:39;;;;;;;13.05;5.60;;;;;;;1.43;100.00;98337.02;3692695;78;97411;-84
2022/02/01 20:17:40;;;;;;;15.83;7.87;;;;;;;1.48;100.00;98324.50;3697675;78;98697;-84
2022/02/01 20:22:44;;;;;;;15.17;6.93;;;;;;;1.53;100.00;98316.64;3699195;78;99033;-84
2022/02/01 20:27:45;;;;;;;14.28;6.95;;;;;;;1.58;100.00;98315.73;3632439;78;98570;-84
2022/02/01 20:32:47;;;;;;;20.23;8.20;;;;;;;1.65;100.00;98310.39;3679204;78;98647;-86
2022/02/01 20:37:53;;;;;;;13.43;6.10;;;;;;;1.74;100.00;98305.47;3697168;78;98550;-87
2022/02/01 20:42:54;;;;;;;17.17;6.92;;;;;;;1.81;100.00;98303.42;3695269;78;25676;-87
2022/02/01 20:47:57;;;;;;;12.13;5.27;;;;;;;1.87;100.00;98309.48;3675716;78;98765;-89
2022/02/01 20:52:58;;;;;;;11.40;5.92;;;;;;;1.95;100.00;98307.06;3683699;78;98655;-86
2022/02/01 20:57:58;;;;;;;13.83;5.60;;;;;;;2.06;100.00;98318.81;3672273;78;98880;-86
2022/02/01 21:02:59;;;;;;;12.60;5.33;;;;;;;2.15;100.00;98314.44;3697854;78;99049;-86
2022/02/01 21:08:00;;;;;;;10.30;4.53;;;;;;;2.21;100.00;98307.52;3691724;78;98851;-83
2022/02/01 21:13:01;;;;;;;9.48;4.58;;;;;;;2.26;100.00;98310.69;3688889;77;33484;-87
2022/02/01 21:18:03;;;;;;;9.80;4.70;;;;;;;2.31;100.00;98310.36;3678279;79;98542;-87
2022/02/01 21:23:05;;;;;;;13.53;4.87;;;;;;;2.36;100.00;98314.05;3678780;77;98263;-89
2022/02/01 21:28:07;;;;;;;11.30;4.97;;;;;;;2.41;100.00;98298.03;3648845;79;98686;-90
2022/02/01 21:33:08;;;;;;;12.37;4.70;;;;;;;2.44;100.00;98295.34;3692357;79;98518;-91
2022/02/01 21:38:09;;;;;;;12.30;4.90;;;;;;;2.51;100.00;98298.70;3678437;79;99168;-91
2022/02/01 21:43:10;;;;;;;11.83;5.23;;;;;;;2.56;100.00;98303.20;3686978;79;33562;-93
2022/02/01 21:48:12;;;;;;;15.13;6.50;;;;;;;2.63;100.00;98299.77;3675142;79;99133;-94
2022/02/01 21:53:15;;;;;;;18.97;9.07;;;;;;;2.69;100.00;98307.16;3691023;78;99148;-96
2022/02/01 21:58:17;;;;;;;14.78;5.10;;;;;;;2.74;100.00;98300.03;3672441;78;99272;-96
2022/02/01 22:26:40;;;;;;;14.25;3.10;;;;;;;3.08;100.00;98311.53;3600661;80;26051;-94
2022/02/01 22:31:49;;;;;;;9.78;3.52;;;;;;;3.16;100.00;98315.87;3561977;82;98623;-96
2022/02/01 22:36:50;;;;;;;9.80;2.23;;;;;;;3.24;100.00;98325.05;3554138;81;98386;-93
2022/02/01 22:41:53;;;;;;;10.47;2.90;;;;;;;3.27;100.00;98314.77;3547888;81;98487;-92
2022/02/01 22:46:58;;;;;;;7.03;2.40;;;;;;;3.27;100.00;98309.33;3600083;80;105614;-94
2022/02/01 22:51:59;;;;;;;6.10;2.40;;;;;;;3.31;100.00;98310.70;3575764;81;99064;-92
2022/02/01 22:57:00;;;;;;;9.57;2.90;;;;;;;3.33;100.00;98315.95;3671879;78;98613;-91
2022/02/01 23:02:01;;;;;;;8.60;2.40;;;;;;;3.37;100.00;98314.61;3690334;78;98632;-92
2022/02/01 23:07:07;;;;;;;9.00;3.17;;;;;;;3.37;100.00;98304.53;3682855;78;98471;-92
2022/02/01 23:17:48;;;;;;;9.40;2.75;;;;;;;3.43;100.00;98313.88;3682720;78;98588;-91
2022/02/01 23:22:57;;;;;;;17.67;4.40;;;;;;;3.45;100.00;98303.99;3605021;79;99111;-93
2022/02/01 23:28:03;;;;;;;13.72;3.87;;;;;;;3.46;100.00;98296.82;3621587;80;98805;-91
2022/02/01 23:33:07;;;;;;;18.57;4.80;;;;;;;3.51;100.00;98304.62;3758191;77;26324;-92
2022/02/01 23:38:32;;;;;;;19.60;3.37;;;;;;;3.55;100.00;98301.31;3747606;74;98981;-90
2022/02/01 23:48:16;;;;;;;17.10;4.43;;;;;;;3.65;100.00;98303.90;3750159;75;84947;-89
2022/02/01 23:53:22;;;;;;;20.07;4.90;;;;;;;3.69;100.00;98305.47;3757709;77;98629;-86
2022/02/01 23:58:28;;;;;;;15.10;3.60;;;;;;;3.78;100.00;98312.67;3726358;76;98920;-90
